Time;durP1;ratioP1;P1;durP2;ratioP2;P2;SDS_P1;SDS_P2;PMS_P1;PMS_P2;Temp;Humidity;BMP_temperature;BMP_pressure;BME280_temperature;BME280_humidity;BME280_pressure;Samples;Min_cycle;Max_cycle;Signal;HPM_P1;HPM_P2
2023/02/24 00:00:32;;;;;;;6.85;1.95;;;;;;;;;;5050131;28;20063;-60
2023/02/24 00:03:04;;;;;;;8.70;2.33;;;;;;;;;;5042165;28;20045;-61
2023/02/24 00:05:30;;;;;;;7.50;1.98;;;;;;;;;;5030628;28;20138;-61
2023/02/24 00:07:56;;;;;;;8.23;2.15;;;;;;;;;;5030908;28;20486;-62
2023/02/24 00:10:22;;;;;;;10.48;2.42;;;;;;;;;;5030682;28;20029;-60
2023/02/24 00:12:48;;;;;;;8.63;2.55;;;;;;;;;;5031191;28;20030;-60
2023/02/24 00:15:14;;;;;;;7.82;2.30;;;;;;;;;;5044650;28;20519;-63
2023/02/24 00:17:40;;;;;;;9.38;2.60;;;;;;;;;;5051441;28;20493;-60
2023/02/24 00:20:10;;;;;;;7.15;2.03;;;;;;;;;;5034771;28;20030;-61
2023/02/24 00:22:36;;;;;;;7.82;1.90;;;;;;;;;;5031376;28;20075;-62
2023/02/24 00:25:03;;;;;;;7.80;2.13;;;;;;;;;;5031622;28;20040;-61
2023/02/24 00:27:28;;;;;;;5.80;1.83;;;;;;;;;;5031264;28;20060;-62
2023/02/24 00:29:54;;;;;;;8.43;2.33;;;;;;;;;;5031362;28;20065;-62
2023/02/24 00:32:20;;;;;;;9.35;2.55;;;;;;;;;;5031126;28;20552;-60
2023/02/24 00:34:47;;;;;;;7.00;2.22;;;;;;;;;;5031481;28;20033;-61
2023/02/24 00:37:22;;;;;;;6.32;2.00;;;;;;;;;;5030805;28;20125;-61
2023/02/24 00:39:48;;;;;;;7.45;2.13;;;;;;;;;;5031468;28;20040;-61
2023/02/24 00:42:14;;;;;;;7.82;2.17;;;;;;;;;;5031003;28;20033;-61
2023/02/24 00:44:43;;;;;;;6.28;1.95;;;;;;;;;;5039756;28;20029;-62
2023/02/24 00:47:10;;;;;;;8.60;2.47;;;;;;;;;;5047846;28;20017;-62
2023/02/24 00:49:40;;;;;;;8.57;2.50;;;;;;;;;;5030640;28;20041;-63
2023/02/24 00:52:08;;;;;;;5.10;1.80;;;;;;;;;;5031000;28;20026;-62
2023/02/24 00:54:37;;;;;;;8.57;2.03;;;;;;;;;;5030817;28;20037;-62
2023/02/24 00:57:03;;;;;;;8.23;1.92;;;;;;;;;;5030986;28;20041;-62
2023/02/24 00:59:29;;;;;;;7.43;1.95;;;;;;;;;;5030959;28;20029;-62
2023/02/24 01:01:55;;;;;;;5.30;1.55;;;;;;;;;;5030835;28;20029;-62
2023/02/24 01:04:21;;;;;;;8.77;2.20;;;;;;;;;;5030732;28;20025;-61
2023/02/24 01:06:49;;;;;;;9.32;2.00;;;;;;;;;;5030940;28;20044;-62
2023/02/24 01:09:17;;;;;;;6.25;1.77;;;;;;;;;;5030773;28;20108;-59
2023/02/24 01:14:30;;;;;;;10.10;2.22;;;;;;;;;;5035245;28;20044;-63
2023/02/24 01:16:56;;;;;;;8.50;2.05;;;;;;;;;;5051063;28;20041;-62
2023/02/24 01:19:24;;;;;;;7.05;1.88;;;;;;;;;;5040107;28;20057;-62
2023/02/24 01:21:54;;;;;;;7.18;1.90;;;;;;;;;;5030657;28;20347;-62
2023/02/24 01:24:23;;;;;;;7.70;1.80;;;;;;;;;;5030470;28;20061;-62
2023/02/24 01:26:50;;;;;;;6.35;1.98;;;;;;;;;;5031118;28;20100;-62
2023/02/24 01:29:16;;;;;;;5.88;1.40;;;;;;;;;;5029954;28;20112;-60
2023/02/24 01:31:42;;;;;;;6.13;2.00;;;;;;;;;;5031293;28;20029;-63
2023/02/24 01:34:12;;;;;;;5.97;1.58;;;;;;;;;;5030963;28;20087;-63
2023/02/24 01:36:39;;;;;;;4.88;1.73;;;;;;;;;;5030930;28;20059;-62
2023/02/24 01:39:09;;;;;;;7.63;2.78;;;;;;;;;;5030309;28;20029;-61
2023/02/24 01:41:36;;;;;;;7.03;1.90;;;;;;;;;;5034680;28;20433;-62
2023/02/24 01:44:10;;;;;;;5.95;1.88;;;;;;;;;;5050810;28;21092;-62
2023/02/24 01:46:40;;;;;;;5.65;2.00;;;;;;;;;;5036907;28;20076;-63
2023/02/24 01:49:12;;;;;;;6.45;2.05;;;;;;;;;;5030874;28;20026;-64
2023/02/24 01:51:41;;;;;;;6.68;1.90;;;;;;;;;;5030862;28;20171;-63
2023/02/24 01:54:10;;;;;;;6.45;2.28;;;;;;;;;;5030485;28;20136;-62
2023/02/24 01:56:36;;;;;;;6.38;2.15;;;;;;;;;;5030455;28;20073;-62
2023/02/24 01:59:02;;;;;;;7.63;2.35;;;;;;;;;;5046234;28;20112;-62
2023/02/24 02:01:29;;;;;;;5.13;1.33;;;;;;;;;;5038212;28;20034;-62
2023/02/24 02:04:00;;;;;;;6.60;2.05;;;;;;;;;;5030444;28;20375;-63
2023/02/24 02:06:27;;;;;;;7.95;2.38;;;;;;;;;;5029873;28;20038;-62
2023/02/24 02:08:53;;;;;;;7.18;2.00;;;;;;;;;;5030503;28;20034;-63
2023/02/24 02:11:19;;;;;;;5.78;1.83;;;;;;;;;;5030463;28;20040;-64
2023/02/24 02:13:49;;;;;;;4.97;1.70;;;;;;;;;;5029864;28;20034;-62
2023/02/24 02:16:30;;;;;;;5.43;1.60;;;;;;;;;;5034996;28;20036;-64
2023/02/24 02:19:02;;;;;;;4.40;1.55;;;;;;;;;;5050221;28;20021;-63
2023/02/24 02:21:39;;;;;;;3.60;1.42;;;;;;;;;;5036104;28;20044;-61
2023/02/24 02:24:23;;;;;;;6.18;1.85;;;;;;;;;;5030199;28;20425;-63
2023/02/24 02:26:52;;;;;;;5.93;1.65;;;;;;;;;;5030390;28;20032;-63
2023/02/24 02:29:45;;;;;;;4.50;1.65;;;;;;;;;;5029436;28;20054;-63
2023/02/24 02:32:10;;;;;;;7.78;1.90;;;;;;;;;;5030506;28;20033;-64
2023/02/24 02:34:44;;;;;;;7.07;1.80;;;;;;;;;;5029351;28;20040;-64
2023/02/24 02:37:11;;;;;;;5.97;1.60;;;;;;;;;;5030509;28;20041;-62
2023/02/24 02:39:51;;;;;;;6.82;2.15;;;;;;;;;;5029666;28;20057;-61
2023/02/24 02:42:39;;;;;;;7.43;1.88;;;;;;;;;;5031901;28;20025;-64
2023/02/24 02:45:06;;;;;;;8.98;2.05;;;;;;;;;;5033350;28;20033;-62
2023/02/24 02:47:40;;;;;;;6.38;1.80;;;;;;;;;;5048935;28;20040;-62
2023/02/24 02:50:17;;;;;;;4.50;1.38;;;;;;;;;;5053561;28;20033;-61
2023/02/24 02:52:47;;;;;;;3.60;1.30;;;;;;;;;;5033230;28;20091;-61
2023/02/24 02:55:39;;;;;;;3.75;1.38;;;;;;;;;;5033036;28;20108;-62
2023/02/24 02:58:08;;;;;;;4.97;1.40;;;;;;;;;;5032584;28;20134;-62
2023/02/24 03:00:40;;;;;;;5.70;1.75;;;;;;;;;;5032885;28;20474;-62
2023/02/24 03:03:11;;;;;;;3.53;1.45;;;;;;;;;;5033202;28;20155;-62
2023/02/24 03:05:45;;;;;;;5.68;1.73;;;;;;;;;;5032955;28;20029;-61
2023/02/24 03:08:14;;;;;;;3.70;1.25;;;;;;;;;;5033376;28;20033;-61
2023/02/24 03:10:43;;;;;;;4.72;1.92;;;;;;;;;;5033254;28;20033;-62
2023/02/24 03:13:12;;;;;;;5.78;1.20;;;;;;;;;;5033571;28;20554;-61
2023/02/24 03:15:41;;;;;;;4.53;1.48;;;;;;;;;;5032899;28;20124;-62
2023/02/24 03:18:09;;;;;;;4.82;1.67;;;;;;;;;;5013674;28;20064;-61
2023/02/24 03:20:45;;;;;;;6.38;1.70;;;;;;;;;;5016158;28;20477;-62
2023/02/24 03:23:17;;;;;;;4.72;1.90;;;;;;;;;;5032956;28;20095;-61
2023/02/24 03:26:04;;;;;;;6.88;1.88;;;;;;;;;;5032645;28;20091;-61
2023/02/24 03:28:32;;;;;;;5.13;1.38;;;;;;;;;;5032101;28;20038;-61
2023/02/24 03:31:02;;;;;;;4.65;1.67;;;;;;;;;;5032272;28;20079;-64
2023/02/24 03:33:33;;;;;;;4.88;1.50;;;;;;;;;;5032754;28;20025;-63
2023/02/24 03:36:00;;;;;;;5.28;1.17;;;;;;;;;;5032245;28;20038;-63
2023/02/24 03:38:27;;;;;;;7.18;1.80;;;;;;;;;;5032110;28;20034;-63
2023/02/24 03:40:53;;;;;;;4.75;1.40;;;;;;;;;;5032305;28;20096;-63
2023/02/24 03:43:32;;;;;;;5.07;1.40;;;;;;;;;;5048039;28;20032;-62
2023/02/24 03:46:00;;;;;;;7.80;1.80;;;;;;;;;;5048193;28;20021;-62
2023/02/24 03:48:27;;;;;;;5.93;1.40;;;;;;;;;;5032448;28;20108;-61
2023/02/24 03:50:53;;;;;;;4.35;1.85;;;;;;;;;;5032697;28;20056;-61
2023/02/24 03:53:21;;;;;;;5.32;1.70;;;;;;;;;;5032060;28;20021;-62
2023/02/24 03:55:47;;;;;;;6.85;1.63;;;;;;;;;;5032233;28;20041;-62
2023/02/24 03:58:42;;;;;;;8.50;1.65;;;;;;;;;;5036815;28;20066;-63
2023/02/24 04:01:11;;;;;;;6.97;1.80;;;;;;;;;;5017176;28;20038;-64
2023/02/24 04:03:40;;;;;;;6.93;1.75;;;;;;;;;;5017594;28;20021;-61
2023/02/24 04:06:07;;;;;;;6.72;1.90;;;;;;;;;;5031938;28;20040;-62
2023/02/24 04:08:41;;;;;;;5.43;2.13;;;;;;;;;;5031993;28;20090;-64
2023/02/24 04:11:13;;;;;;;5.05;1.55;;;;;;;;;;5031844;28;20037;-62
2023/02/24 04:13:39;;;;;;;5.22;1.42;;;;;;;;;;5032093;28;20409;-63
2023/02/24 04:16:15;;;;;;;6.35;2.10;;;;;;;;;;5031672;28;20057;-64
2023/02/24 04:18:45;;;;;;;5.45;2.17;;;;;;;;;;5048023;28;20519;-62
2023/02/24 04:21:11;;;;;;;4.95;1.60;;;;;;;;;;5052337;28;20091;-62
2023/02/24 04:23:42;;;;;;;3.95;1.15;;;;;;;;;;5041070;28;20029;-62
2023/02/24 04:26:11;;;;;;;3.85;1.42;;;;;;;;;;5031915;28;20492;-62
2023/02/24 04:28:37;;;;;;;4.68;1.95;;;;;;;;;;5032030;28;20482;-61
2023/02/24 04:31:06;;;;;;;4.88;1.40;;;;;;;;;;5031103;28;20036;-62
2023/02/24 04:33:34;;;;;;;5.25;1.13;;;;;;;;;;5031282;28;20393;-61
2023/02/24 04:36:00;;;;;;;7.90;1.80;;;;;;;;;;5031106;28;20026;-62
2023/02/24 04:38:26;;;;;;;6.00;1.48;;;;;;;;;;5031261;28;20088;-61
2023/02/24 04:40:53;;;;;;;6.25;1.67;;;;;;;;;;5031207;28;20079;-62
2023/02/24 04:43:19;;;;;;;4.97;1.58;;;;;;;;;;5031486;28;20029;-62
2023/02/24 04:45:45;;;;;;;5.82;1.75;;;;;;;;;;5031109;28;20025;-61
2023/02/24 04:48:11;;;;;;;6.20;1.60;;;;;;;;;;5031602;28;20033;-62
2023/02/24 04:50:38;;;;;;;4.13;1.40;;;;;;;;;;5051699;28;20021;-62
2023/02/24 04:53:06;;;;;;;3.50;1.33;;;;;;;;;;5044793;28;20030;-62
2023/02/24 04:55:38;;;;;;;4.93;1.30;;;;;;;;;;5030681;28;20037;-62
2023/02/24 04:58:04;;;;;;;4.53;1.80;;;;;;;;;;5030873;28;20041;-62
2023/02/24 05:00:34;;;;;;;5.55;1.45;;;;;;;;;;5030632;28;20521;-62
2023/02/24 05:03:01;;;;;;;3.70;1.10;;;;;;;;;;5011999;28;20041;-62
2023/02/24 05:05:27;;;;;;;5.18;1.77;;;;;;;;;;5030048;28;20037;-63
2023/02/24 05:08:01;;;;;;;5.18;1.83;;;;;;;;;;5031254;28;20029;-62
2023/02/24 05:10:28;;;;;;;4.10;1.35;;;;;;;;;;5030435;28;20041;-62
2023/02/24 05:12:58;;;;;;;4.43;1.42;;;;;;;;;;5030776;28;20033;-61
2023/02/24 05:15:31;;;;;;;5.93;1.58;;;;;;;;;;5030385;28;20517;-61
2023/02/24 05:18:06;;;;;;;4.88;1.85;;;;;;;;;;5030431;28;20426;-61
2023/02/24 05:23:17;;;;;;;4.68;1.35;;;;;;;;;;5050912;28;20032;-62
2023/02/24 05:25:43;;;;;;;4.50;1.42;;;;;;;;;;5031540;28;20030;-61
2023/02/24 05:28:09;;;;;;;4.07;1.40;;;;;;;;;;5031016;28;20036;-62
2023/02/24 05:30:35;;;;;;;4.85;1.60;;;;;;;;;;5030151;28;20135;-62
2023/02/24 05:33:01;;;;;;;4.30;1.58;;;;;;;;;;5030852;28;20036;-61
2023/02/24 05:35:28;;;;;;;4.53;1.63;;;;;;;;;;5030167;28;20026;-62
2023/02/24 05:37:57;;;;;;;4.93;1.30;;;;;;;;;;5030236;28;20049;-63
2023/02/24 05:40:24;;;;;;;7.15;1.63;;;;;;;;;;5029978;28;20029;-63
2023/02/24 05:42:50;;;;;;;4.75;1.40;;;;;;;;;;5046744;28;20552;-62
2023/02/24 05:45:17;;;;;;;5.63;1.50;;;;;;;;;;5047393;28;20552;-62
2023/02/24 05:47:46;;;;;;;5.18;1.85;;;;;;;;;;5030783;28;20064;-62
2023/02/24 05:50:12;;;;;;;5.43;1.70;;;;;;;;;;5031106;28;20036;-62
2023/02/24 05:52:38;;;;;;;4.00;1.27;;;;;;;;;;5031188;28;20128;-61
2023/02/24 05:55:06;;;;;;;4.97;1.42;;;;;;;;;;5030543;28;20026;-63
2023/02/24 05:57:34;;;;;;;3.28;1.25;;;;;;;;;;5033877;28;20762;-61
2023/02/24 06:00:11;;;;;;;5.20;1.75;;;;;;;;;;5048158;28;20033;-62
2023/02/24 06:02:37;;;;;;;3.42;1.20;;;;;;;;;;5030728;28;20516;-63
2023/02/24 06:05:07;;;;;;;4.45;1.00;;;;;;;;;;5030554;28;20022;-63
2023/02/24 06:07:33;;;;;;;4.60;1.55;;;;;;;;;;5030267;28;20410;-63
2023/02/24 06:10:00;;;;;;;5.05;1.05;;;;;;;;;;5029978;28;20039;-63
2023/02/24 06:12:28;;;;;;;4.88;1.50;;;;;;;;;;5030472;28;20431;-63
2023/02/24 06:14:56;;;;;;;4.32;1.27;;;;;;;;;;5030456;28;20030;-62
2023/02/24 06:17:23;;;;;;;5.47;1.75;;;;;;;;;;5033536;28;20095;-63
2023/02/24 06:19:50;;;;;;;4.13;1.27;;;;;;;;;;5045214;28;20057;-63
2023/02/24 06:22:18;;;;;;;5.65;1.83;;;;;;;;;;5054220;28;20021;-61
2023/02/24 06:24:44;;;;;;;5.18;1.20;;;;;;;;;;5044206;28;20037;-62
2023/02/24 06:27:17;;;;;;;5.25;1.50;;;;;;;;;;5034620;28;20056;-62
2023/02/24 06:29:44;;;;;;;3.65;1.17;;;;;;;;;;5033583;28;20441;-62
2023/02/24 06:32:11;;;;;;;4.68;1.35;;;;;;;;;;5032903;28;20032;-62
2023/02/24 06:34:37;;;;;;;3.95;1.65;;;;;;;;;;5034181;28;20449;-60
2023/02/24 06:37:04;;;;;;;4.35;1.38;;;;;;;;;;5034150;28;20524;-60
2023/02/24 06:39:31;;;;;;;3.35;1.33;;;;;;;;;;5033372;28;20048;-59
2023/02/24 06:42:02;;;;;;;4.75;1.67;;;;;;;;;;5032823;28;20064;-60
2023/02/24 06:44:29;;;;;;;4.88;2.10;;;;;;;;;;5033497;28;20025;-62
2023/02/24 06:46:55;;;;;;;4.68;1.67;;;;;;;;;;5033043;28;20520;-60
2023/02/24 06:49:21;;;;;;;7.88;2.55;;;;;;;;;;5032497;28;20018;-61
2023/02/24 06:51:49;;;;;;;6.65;2.05;;;;;;;;;;5033383;28;20033;-61
2023/02/24 06:54:15;;;;;;;5.53;2.38;;;;;;;;;;5049133;28;20485;-61
2023/02/24 06:56:41;;;;;;;5.22;2.53;;;;;;;;;;5051241;28;20033;-62
2023/02/24 06:59:14;;;;;;;6.95;2.67;;;;;;;;;;5034067;28;20056;-63
2023/02/24 07:01:46;;;;;;;5.72;2.72;;;;;;;;;;5034001;28;20053;-61
2023/02/24 07:06:40;;;;;;;4.78;2.58;;;;;;;;;;5032904;28;20064;-60
2023/02/24 07:09:16;;;;;;;6.25;2.85;;;;;;;;;;5032290;28;20028;-61
2023/02/24 07:11:45;;;;;;;8.27;2.97;;;;;;;;;;5033609;28;20116;-61
2023/02/24 07:14:12;;;;;;;5.72;2.58;;;;;;;;;;5041980;28;20409;-61
2023/02/24 07:16:40;;;;;;;7.00;2.67;;;;;;;;;;5053611;28;20178;-61
2023/02/24 07:19:12;;;;;;;7.68;2.83;;;;;;;;;;5047179;28;20111;-60
2023/02/24 07:21:39;;;;;;;9.10;2.97;;;;;;;;;;5033207;28;20026;-61
2023/02/24 07:24:12;;;;;;;6.43;2.80;;;;;;;;;;5033457;28;20040;-62
2023/02/24 07:26:40;;;;;;;8.68;3.13;;;;;;;;;;5031949;28;20039;-63
2023/02/24 07:29:07;;;;;;;11.15;3.30;;;;;;;;;;5032773;28;20061;-60
2023/02/24 07:31:35;;;;;;;8.27;3.05;;;;;;;;;;5029941;28;20028;-61
2023/02/24 07:34:01;;;;;;;9.68;3.67;;;;;;;;;;5046414;28;20103;-60
2023/02/24 07:36:37;;;;;;;9.85;3.70;;;;;;;;;;5052589;28;20033;-62
2023/02/24 07:39:04;;;;;;;11.35;3.88;;;;;;;;;;5036564;28;20025;-62
2023/02/24 07:41:30;;;;;;;8.63;3.35;;;;;;;;;;5047634;28;20056;-62
2023/02/24 07:43:58;;;;;;;9.20;3.97;;;;;;;;;;5037827;28;20023;-61
2023/02/24 07:46:26;;;;;;;12.30;4.10;;;;;;;;;;5030830;28;20056;-63
2023/02/24 07:48:53;;;;;;;10.50;4.60;;;;;;;;;;5031073;28;20020;-61
2023/02/24 07:51:24;;;;;;;12.60;4.40;;;;;;;;;;5030853;28;20029;-64
2023/02/24 07:53:51;;;;;;;9.63;4.15;;;;;;;;;;5032203;28;20036;-63
2023/02/24 07:56:18;;;;;;;12.50;3.83;;;;;;;;;;5030904;28;20053;-62
2023/02/24 07:58:45;;;;;;;9.85;3.42;;;;;;;;;;5032229;28;20030;-63
2023/02/24 08:01:21;;;;;;;11.27;4.15;;;;;;;;;;5032745;28;20021;-64
2023/02/24 08:03:48;;;;;;;10.23;3.30;;;;;;;;;;5032475;28;20104;-62
2023/02/24 08:06:14;;;;;;;10.93;3.58;;;;;;;;;;5032216;28;20453;-64
2023/02/24 08:08:56;;;;;;;12.23;4.15;;;;;;;;;;5032590;28;20028;-63
2023/02/24 08:11:36;;;;;;;7.85;3.25;;;;;;;;;;5029130;28;20087;-63
2023/02/24 08:14:02;;;;;;;9.93;3.40;;;;;;;;;;5032388;28;20482;-63
2023/02/24 08:16:41;;;;;;;11.35;4.03;;;;;;;;;;5031990;28;20030;-63
2023/02/24 08:19:11;;;;;;;8.30;3.00;;;;;;;;;;5032202;28;20025;-63
2023/02/24 08:21:40;;;;;;;9.45;3.42;;;;;;;;;;5034077;28;20036;-63
2023/02/24 08:24:06;;;;;;;8.57;3.35;;;;;;;;;;5052212;28;20393;-62
2023/02/24 08:26:36;;;;;;;8.82;3.22;;;;;;;;;;5041191;28;20051;-63
2023/02/24 08:29:06;;;;;;;10.63;3.50;;;;;;;;;;5050185;28;20059;-63
2023/02/24 08:31:32;;;;;;;8.70;2.83;;;;;;;;;;5050756;28;20547;-63
2023/02/24 08:33:58;;;;;;;10.20;3.63;;;;;;;;;;5051843;28;20092;-63
2023/02/24 08:36:24;;;;;;;11.60;3.90;;;;;;;;;;5051226;28;20064;-63
2023/02/24 08:38:51;;;;;;;10.05;3.40;;;;;;;;;;5051191;28;20057;-62
2023/02/24 08:41:19;;;;;;;8.15;3.38;;;;;;;;;;5050788;28;20056;-63
2023/02/24 08:43:46;;;;;;;14.73;3.65;;;;;;;;;;5032786;28;20033;-63
2023/02/24 08:46:12;;;;;;;7.70;2.75;;;;;;;;;;5029894;28;20557;-63
2023/02/24 08:48:41;;;;;;;8.98;2.65;;;;;;;;;;5031779;28;20482;-62
2023/02/24 08:51:07;;;;;;;9.85;3.28;;;;;;;;;;5031963;28;20038;-62
2023/02/24 08:53:33;;;;;;;8.52;2.90;;;;;;;;;;5031484;28;20063;-63
2023/02/24 08:56:10;;;;;;;10.52;3.58;;;;;;;;;;5031464;28;20032;-63
2023/02/24 08:58:39;;;;;;;8.27;2.90;;;;;;;;;;5030459;28;20030;-63
2023/02/24 09:01:17;;;;;;;10.73;3.35;;;;;;;;;;5031313;28;20026;-63
2023/02/24 09:03:44;;;;;;;8.60;3.15;;;;;;;;;;5031221;28;20037;-63
2023/02/24 09:06:11;;;;;;;6.82;2.75;;;;;;;;;;5031633;28;20049;-62
2023/02/24 09:08:38;;;;;;;8.70;3.03;;;;;;;;;;5031707;28;20037;-63
2023/02/24 09:11:08;;;;;;;10.40;2.97;;;;;;;;;;5031472;28;20029;-63
2023/02/24 09:13:35;;;;;;;7.15;2.60;;;;;;;;;;5030558;28;20501;-63
2023/02/24 09:16:03;;;;;;;9.38;2.65;;;;;;;;;;5031200;28;20086;-63
2023/02/24 09:18:29;;;;;;;6.38;2.80;;;;;;;;;;5031156;28;20061;-63
2023/02/24 09:23:45;;;;;;;7.75;3.05;;;;;;;;;;5031208;28;20123;-63
2023/02/24 09:26:12;;;;;;;8.45;2.67;;;;;;;;;;5031442;28;20516;-63
2023/02/24 09:28:53;;;;;;;6.85;2.50;;;;;;;;;;5031175;28;20120;-63
2023/02/24 09:31:22;;;;;;;7.78;2.38;;;;;;;;;;5031081;28;20430;-63
2023/02/24 09:33:52;;;;;;;5.95;2.00;;;;;;;;;;5030663;28;20029;-63
2023/02/24 09:36:19;;;;;;;8.23;2.20;;;;;;;;;;5030950;28;20033;-64
2023/02/24 09:41:32;;;;;;;7.55;2.67;;;;;;;;;;5030884;28;20481;-63
2023/02/24 09:44:06;;;;;;;6.38;2.50;;;;;;;;;;5029981;28;20065;-63
2023/02/24 09:46:35;;;;;;;6.97;2.50;;;;;;;;;;5028706;28;20371;-62
2023/02/24 09:49:12;;;;;;;7.25;2.17;;;;;;;;;;5029101;28;20454;-62
2023/02/24 09:51:41;;;;;;;6.28;1.83;;;;;;;;;;5031155;28;20108;-63
2023/02/24 09:54:14;;;;;;;5.25;2.17;;;;;;;;;;5033188;28;20021;-62
2023/02/24 09:57:09;;;;;;;7.25;2.40;;;;;;;;;;5033473;28;20120;-63
2023/02/24 09:59:38;;;;;;;7.63;2.30;;;;;;;;;;5032878;28;20037;-63
2023/02/24 10:02:32;;;;;;;4.70;2.22;;;;;;;;;;5034580;28;20048;-63
2023/02/24 10:05:07;;;;;;;8.40;3.20;;;;;;;;;;5034792;28;20025;-63
2023/02/24 10:07:40;;;;;;;5.63;2.15;;;;;;;;;;5034108;28;20032;-62
2023/02/24 10:10:26;;;;;;;5.07;1.90;;;;;;;;;;5034460;28;20037;-62
2023/02/24 10:12:57;;;;;;;8.68;2.72;;;;;;;;;;5034657;28;20040;-63
2023/02/24 10:18:27;;;;;;;5.95;2.25;;;;;;;;;;5035039;28;20048;-61
2023/02/24 10:20:57;;;;;;;7.55;2.50;;;;;;;;;;5034560;28;20021;-62
2023/02/24 10:23:31;;;;;;;5.13;2.10;;;;;;;;;;5033734;28;20038;-62
2023/02/24 10:26:29;;;;;;;4.80;1.75;;;;;;;;;;5034638;28;20040;-62
2023/02/24 10:29:07;;;;;;;6.20;2.08;;;;;;;;;;5034271;28;20025;-62
2023/02/24 10:31:56;;;;;;;7.07;2.47;;;;;;;;;;5034193;28;20029;-62
2023/02/24 10:34:30;;;;;;;6.13;1.83;;;;;;;;;;5033878;28;20497;-62
2023/02/24 10:37:11;;;;;;;4.82;2.03;;;;;;;;;;5033627;28;20091;-62
2023/02/24 10:39:41;;;;;;;5.53;1.88;;;;;;;;;;5034027;28;20032;-62
2023/02/24 10:42:16;;;;;;;6.80;2.13;;;;;;;;;;5034231;28;20040;-62
2023/02/24 10:44:53;;;;;;;5.68;2.28;;;;;;;;;;5034244;28;20486;-63
2023/02/24 10:47:29;;;;;;;6.68;2.05;;;;;;;;;;5033917;28;20032;-62
2023/02/24 10:49:57;;;;;;;4.90;2.00;;;;;;;;;;5033395;28;20065;-62
2023/02/24 10:52:35;;;;;;;5.25;2.15;;;;;;;;;;5033337;28;20029;-62
2023/02/24 10:55:07;;;;;;;4.97;2.08;;;;;;;;;;5033994;28;20456;-62
2023/02/24 10:57:36;;;;;;;6.95;2.63;;;;;;;;;;5033473;28;20049;-62
2023/02/24 11:03:09;;;;;;;6.40;2.33;;;;;;;;;;5032753;28;20544;-62
2023/02/24 11:05:43;;;;;;;4.78;1.60;;;;;;;;;;5033380;28;20032;-62
2023/02/24 11:08:35;;;;;;;4.93;1.67;;;;;;;;;;5033514;28;20458;-62
2023/02/24 11:11:05;;;;;;;5.55;1.88;;;;;;;;;;5033365;28;20036;-62
2023/02/24 11:19:21;;;;;;;7.38;2.00;;;;;;;;;;5030930;28;20034;-63
2023/02/24 11:21:47;;;;;;;5.50;2.28;;;;;;;;;;5030965;28;20036;-65
2023/02/24 11:24:16;;;;;;;6.43;2.40;;;;;;;;;;5022842;28;20046;-64
2023/02/24 11:26:43;;;;;;;6.35;1.90;;;;;;;;;;5013544;28;20077;-64
2023/02/24 11:29:19;;;;;;;5.88;2.28;;;;;;;;;;5018033;28;20033;-65
2023/02/24 11:31:57;;;;;;;5.78;2.28;;;;;;;;;;5033229;28;20079;-65
2023/02/24 11:34:31;;;;;;;6.32;2.13;;;;;;;;;;5032983;28;20033;-65
2023/02/24 11:36:57;;;;;;;5.00;1.90;;;;;;;;;;5032566;28;20064;-64
2023/02/24 11:39:28;;;;;;;8.73;2.55;;;;;;;;;;5032873;28;20501;-65
2023/02/24 11:41:56;;;;;;;5.68;2.15;;;;;;;;;;5032826;28;20032;-68
2023/02/24 11:44:22;;;;;;;9.25;2.10;;;;;;;;;;5032325;28;20095;-66
2023/02/24 11:46:56;;;;;;;5.63;2.20;;;;;;;;;;5031238;28;20489;-66
2023/02/24 11:49:34;;;;;;;7.75;2.10;;;;;;;;;;5047652;28;20032;-62
2023/02/24 11:52:03;;;;;;;6.00;1.88;;;;;;;;;;5052700;28;20100;-65
2023/02/24 11:54:34;;;;;;;8.30;2.47;;;;;;;;;;5052398;28;20033;-63
2023/02/24 11:57:02;;;;;;;9.40;2.28;;;;;;;;;;5052636;28;20040;-66
2023/02/24 11:59:31;;;;;;;7.57;2.00;;;;;;;;;;5052377;28;20021;-64
2023/02/24 12:02:34;;;;;;;5.15;1.77;;;;;;;;;;5034153;28;20083;-66
2023/02/24 12:05:05;;;;;;;3.00;1.85;;;;;;;;;;5013494;28;20025;-66
2023/02/24 12:07:33;;;;;;;7.03;1.92;;;;;;;;;;5030533;28;20523;-65
2023/02/24 12:10:08;;;;;;;9.45;2.53;;;;;;;;;;5043437;28;20064;-66
2023/02/24 12:12:53;;;;;;;4.82;1.80;;;;;;;;;;5052050;28;20037;-65
2023/02/24 12:15:23;;;;;;;6.38;1.52;;;;;;;;;;5012343;28;20022;-65
2023/02/24 12:18:00;;;;;;;5.30;1.75;;;;;;;;;;5012372;28;20042;-63
2023/02/24 12:20:35;;;;;;;5.65;2.05;;;;;;;;;;5012066;28;20025;-66
2023/02/24 12:23:14;;;;;;;6.13;2.00;;;;;;;;;;5012412;28;20057;-65
2023/02/24 12:26:00;;;;;;;6.68;1.52;;;;;;;;;;5021753;28;20056;-67
2023/02/24 12:28:26;;;;;;;;;;;;;;;;;;5040437;28;20174;-66
2023/02/24 12:30:56;;;;;;;6.55;1.60;;;;;;;;;;5031927;28;19909;-66
2023/02/24 12:33:51;;;;;;;7.78;2.30;;;;;;;;;;5050445;28;20025;-65
2023/02/24 12:36:26;;;;;;;9.35;2.10;;;;;;;;;;5032402;28;20061;-65
2023/02/24 12:38:59;;;;;;;4.55;2.00;;;;;;;;;;5040809;28;20423;-65
2023/02/24 12:41:28;;;;;;;6.05;1.88;;;;;;;;;;5033160;28;20045;-64
2023/02/24 12:43:54;;;;;;;7.07;2.35;;;;;;;;;;5032325;28;20191;-64
2023/02/24 12:46:23;;;;;;;9.13;2.40;;;;;;;;;;5029752;28;20565;-65
2023/02/24 12:48:52;;;;;;;8.90;2.58;;;;;;;;;;5028231;28;20025;-65
2023/02/24 12:51:41;;;;;;;8.20;2.25;;;;;;;;;;5030681;28;20034;-63
2023/02/24 12:54:16;;;;;;;7.03;2.67;;;;;;;;;;5024072;28;20045;-65
2023/02/24 12:56:48;;;;;;;7.97;2.17;;;;;;;;;;5031565;28;20040;-64
2023/02/24 12:59:16;;;;;;;5.90;2.65;;;;;;;;;;5031301;28;20517;-65
2023/02/24 13:01:45;;;;;;;8.18;2.50;;;;;;;;;;5031552;28;20063;-65
2023/02/24 13:04:17;;;;;;;7.13;2.15;;;;;;;;;;5031725;28;20096;-66
2023/02/24 13:06:43;;;;;;;8.57;2.33;;;;;;;;;;5029770;28;20029;-65
2023/02/24 13:09:15;;;;;;;5.32;1.92;;;;;;;;;;5030998;28;20040;-66
2023/02/24 13:11:41;;;;;;;6.30;2.03;;;;;;;;;;5030460;28;20036;-66
2023/02/24 13:14:14;;;;;;;5.00;1.65;;;;;;;;;;5031207;28;20017;-66
2023/02/24 13:16:41;;;;;;;8.95;2.50;;;;;;;;;;5030664;28;20037;-66
2023/02/24 13:19:18;;;;;;;4.45;1.83;;;;;;;;;;5029530;28;20486;-64
2023/02/24 13:21:54;;;;;;;9.95;2.13;;;;;;;;;;5028743;28;20021;-64
2023/02/24 13:24:21;;;;;;;7.70;1.73;;;;;;;;;;5030649;28;20388;-62
2023/02/24 13:26:47;;;;;;;8.00;1.73;;;;;;;;;;5029830;28;20033;-63
2023/02/24 13:29:14;;;;;;;4.03;1.25;;;;;;;;;;5030574;28;20568;-62
2023/02/24 13:31:42;;;;;;;4.88;1.58;;;;;;;;;;5030624;28;20052;-63
2023/02/24 13:34:15;;;;;;;5.15;1.40;;;;;;;;;;5030907;28;20455;-63
2023/02/24 13:36:48;;;;;;;5.50;1.58;;;;;;;;;;5031056;28;20065;-64
2023/02/24 13:39:40;;;;;;;4.82;2.03;;;;;;;;;;5030669;28;20017;-65
2023/02/24 13:42:20;;;;;;;5.75;1.92;;;;;;;;;;5030485;28;20053;-62
2023/02/24 13:44:53;;;;;;;3.92;1.50;;;;;;;;;;5030033;28;20032;-62
2023/02/24 13:47:25;;;;;;;5.38;1.95;;;;;;;;;;5030428;28;20033;-62
2023/02/24 13:50:06;;;;;;;7.47;1.83;;;;;;;;;;5030661;28;20100;-62
2023/02/24 13:52:48;;;;;;;4.97;2.28;;;;;;;;;;5030396;28;20483;-63
2023/02/24 13:55:24;;;;;;;4.97;1.48;;;;;;;;;;5030491;28;20388;-62
2023/02/24 13:58:05;;;;;;;6.85;1.63;;;;;;;;;;5030113;28;20500;-62
2023/02/24 14:00:51;;;;;;;5.13;1.33;;;;;;;;;;5030371;28;20037;-62
2023/02/24 14:03:19;;;;;;;5.70;1.58;;;;;;;;;;5030233;28;20026;-62
2023/02/24 14:05:45;;;;;;;3.97;1.30;;;;;;;;;;5030549;28;20105;-62
2023/02/24 14:08:18;;;;;;;4.65;2.00;;;;;;;;;;5030498;28;20477;-62
2023/02/24 14:10:45;;;;;;;6.93;2.03;;;;;;;;;;5030540;28;20112;-63
2023/02/24 14:13:19;;;;;;;8.30;2.35;;;;;;;;;;5030145;28;20389;-63
2023/02/24 14:15:46;;;;;;;5.45;1.85;;;;;;;;;;5030337;28;20069;-63
2023/02/24 14:18:17;;;;;;;4.60;1.92;;;;;;;;;;5030183;28;20494;-63
2023/02/24 14:20:44;;;;;;;6.82;2.13;;;;;;;;;;5030453;28;20026;-63
2023/02/24 14:23:26;;;;;;;5.85;2.00;;;;;;;;;;5030532;28;20379;-64
2023/02/24 14:25:56;;;;;;;4.47;1.75;;;;;;;;;;5030214;28;20426;-64
2023/02/24 14:28:24;;;;;;;6.47;1.90;;;;;;;;;;5029360;28;20029;-64
2023/02/24 14:30:57;;;;;;;4.50;1.77;;;;;;;;;;5030563;28;20026;-64
2023/02/24 14:33:34;;;;;;;10.07;2.17;;;;;;;;;;5028822;28;20486;-64
2023/02/24 14:36:00;;;;;;;9.45;2.38;;;;;;;;;;5029168;28;20559;-63
2023/02/24 14:38:36;;;;;;;5.93;1.77;;;;;;;;;;5052885;28;20429;-65
2023/02/24 14:41:04;;;;;;;6.30;1.73;;;;;;;;;;5053588;28;20037;-64
2023/02/24 14:43:30;;;;;;;6.40;1.80;;;;;;;;;;5036749;28;20078;-65
2023/02/24 14:45:57;;;;;;;6.07;1.80;;;;;;;;;;5033065;28;20022;-64
2023/02/24 14:48:24;;;;;;;7.75;2.33;;;;;;;;;;5042958;28;20030;-64
2023/02/24 14:50:51;;;;;;;5.35;2.13;;;;;;;;;;5033656;28;20057;-64
2023/02/24 14:53:18;;;;;;;5.43;2.35;;;;;;;;;;5033428;28;20029;-64
2023/02/24 14:55:46;;;;;;;8.70;2.22;;;;;;;;;;5038095;28;20025;-64
2023/02/24 14:58:25;;;;;;;6.05;3.03;;;;;;;;;;5034470;28;20025;-63
2023/02/24 15:00:53;;;;;;;4.72;2.58;;;;;;;;;;5033821;28;20433;-64
2023/02/24 15:03:22;;;;;;;6.38;2.15;;;;;;;;;;5037660;28;20024;-64
2023/02/24 15:05:50;;;;;;;8.02;2.83;;;;;;;;;;5053207;28;20029;-59
2023/02/24 15:08:26;;;;;;;6.10;2.78;;;;;;;;;;5053274;28;20554;-60
2023/02/24 15:10:52;;;;;;;5.13;2.92;;;;;;;;;;5053528;28;20051;-59
2023/02/24 15:13:28;;;;;;;8.65;2.97;;;;;;;;;;5037309;28;20024;-59
2023/02/24 15:15:55;;;;;;;6.78;3.08;;;;;;;;;;5032767;28;20091;-60
2023/02/24 15:18:26;;;;;;;5.40;2.65;;;;;;;;;;5032842;28;20041;-60
2023/02/24 15:21:00;;;;;;;5.82;2.35;;;;;;;;;;5033361;28;20101;-61
2023/02/24 15:23:30;;;;;;;5.85;2.55;;;;;;;;;;5032929;28;20068;-61
2023/02/24 15:25:56;;;;;;;8.82;3.00;;;;;;;;;;5033189;28;20022;-61
2023/02/24 15:28:25;;;;;;;7.03;3.17;;;;;;;;;;5032386;28;20059;-61